createdAt,value
2022-11-17T12:21:25.010Z,85924.78
2022-11-17T12:24:17.495Z,85929.91
2022-11-17T12:26:45.400Z,85937.06
2022-11-17T12:29:22.005Z,85931.00
2022-11-17T12:31:57.595Z,85927.19
2022-11-17T12:34:31.818Z,85942.19
2022-11-17T12:37:23.918Z,85929.34
2022-11-17T12:39:52.747Z,85927.44
2022-11-17T12:42:19.973Z,85934.13
2022-11-17T12:45:04.578Z,85935.94
2022-11-17T12:47:43.087Z,85942.69
2022-11-17T12:50:19.695Z,85932.88
2022-11-17T12:53:26.949Z,85931.66
2022-11-17T12:56:03.308Z,85936.56
2022-11-17T12:58:58.115Z,85941.31
2022-11-17T13:02:11.107Z,85935.53
2022-11-17T13:05:14.519Z,85937.72
2022-11-17T13:07:41.819Z,85935.09
2022-11-17T13:10:31.556Z,85940.69
2022-11-17T13:13:23.043Z,85945.91
2022-11-17T13:15:57.747Z,85944.75
2022-11-17T13:18:37.953Z,85946.97
2022-11-17T13:21:32.794Z,85936.34
2022-11-17T13:24:00.840Z,85951.00
2022-11-17T13:26:31.896Z,85945.31
2022-11-17T13:29:10.830Z,85939.63
2022-11-17T13:31:38.348Z,85936.56
2022-11-17T13:34:15.999Z,85933.44
2022-11-17T13:36:56.423Z,85925.50
2022-11-17T13:39:27.256Z,85929.63
2022-11-17T13:42:02.333Z,85928.50
2022-11-17T13:44:31.001Z,85928.91
2022-11-17T13:47:20.749Z,85926.66
2022-11-17T13:49:48.524Z,85939.47
2022-11-17T13:52:46.708Z,85933.06
2022-11-17T13:55:22.992Z,85939.47
2022-11-17T13:58:00.189Z,85934.59
2022-11-17T14:00:29.908Z,85945.53
2022-11-17T14:03:36.257Z,85954.78
2022-11-17T14:06:12.934Z,85955.41
2022-11-17T14:08:42.858Z,85960.72
2022-11-17T14:11:10.236Z,85961.13
2022-11-17T14:13:56.563Z,85960.72
2022-11-17T14:16:41.432Z,85958.50
2022-11-17T14:19:15.064Z,85962.28
2022-11-17T14:22:11.466Z,85967.91
2022-11-17T14:24:40.557Z,85969.88
2022-11-17T14:27:27.000Z,85967.59
2022-11-17T14:29:54.233Z,85964.59
2022-11-17T14:32:21.708Z,85966.50
2022-11-17T14:34:49.004Z,85959.34
2022-11-17T14:37:16.529Z,85960.84
2022-11-17T14:39:43.767Z,85958.22
2022-11-17T14:42:11.368Z,85960.84
2022-11-17T14:44:38.635Z,85957.84
2022-11-17T14:47:06.125Z,85970.63
2022-11-17T14:49:33.351Z,85968.84
2022-11-17T14:52:00.591Z,85973.34
2022-11-17T14:54:27.791Z,85982.72
2022-11-17T14:56:55.000Z,85978.25
2022-11-17T14:59:22.210Z,85980.66
2022-11-17T15:01:49.416Z,85981.03
2022-11-17T15:04:48.313Z,85973.63
2022-11-17T15:07:03.780Z,85975.16
2022-11-17T15:09:31.169Z,85975.16
2022-11-17T15:11:58.443Z,85974.53
2022-11-17T15:14:25.811Z,85979.13
2022-11-17T15:16:53.089Z,85975.81
2022-11-17T15:19:20.344Z,85984.81
2022-11-17T15:21:47.671Z,85984.13
2022-11-17T15:24:15.421Z,85986.78
2022-11-17T15:26:42.970Z,85984.22
2022-11-17T15:29:14.953Z,85986.91
2022-11-17T15:31:42.746Z,85986.22
2022-11-17T15:34:19.718Z,85985.19
2022-11-17T15:36:48.317Z,85989.00
2022-11-17T15:39:19.294Z,85991.28
2022-11-17T15:41:47.911Z,85990.59
2022-11-17T15:44:15.710Z,85987.63
2022-11-17T15:46:47.359Z,85988.44
2022-11-17T15:49:15.751Z,86000.84
2022-11-17T15:51:43.165Z,86001.28
2022-11-17T15:54:20.074Z,85998.69
2022-11-17T15:56:48.253Z,86001.03
2022-11-17T15:59:15.742Z,85997.34
2022-11-17T16:01:43.564Z,85995.53
2022-11-17T16:04:15.603Z,86001.53
2022-11-17T16:06:45.349Z,86003.09
2022-11-17T16:09:13.756Z,86006.16
2022-11-17T16:11:41.256Z,86011.44
2022-11-17T16:14:09.248Z,86004.72
2022-11-17T16:16:39.117Z,86015.25
2022-11-17T16:19:07.285Z,86014.16
2022-11-17T16:21:34.611Z,86008.16
2022-11-17T16:24:02.013Z,86015.28
2022-11-17T16:26:30.941Z,86003.28
2022-11-17T16:29:05.438Z,86001.47
2022-11-17T16:31:36.144Z,85993.59
2022-11-17T16:34:14.040Z,86003.38
2022-11-17T16:36:43.614Z,86000.00
2022-11-17T16:39:15.497Z,86003.06
2022-11-17T16:41:45.283Z,86009.44
2022-11-17T16:44:18.782Z,86005.75
2022-11-17T16:46:48.726Z,86005.75
2022-11-17T16:49:19.644Z,86009.88
2022-11-17T16:51:52.875Z,86017.78
2022-11-17T16:54:20.773Z,86020.81
2022-11-17T16:56:48.421Z,86030.22
2022-11-17T16:59:16.689Z,86029.88
2022-11-17T17:01:44.432Z,86029.13
2022-11-17T17:04:12.540Z,86025.78
2022-11-17T17:06:43.272Z,86029.19
2022-11-17T17:09:14.119Z,86033.69
2022-11-17T17:11:42.401Z,86034.47
2022-11-17T17:14:14.331Z,86034.47
2022-11-17T17:16:42.501Z,86031.53
2022-11-17T17:19:11.496Z,86039.00
2022-11-17T17:21:40.433Z,86041.25
2022-11-17T17:24:09.660Z,86035.28
2022-11-17T17:26:38.543Z,86037.19
2022-11-17T17:29:07.094Z,86040.56
2022-11-17T17:31:39.374Z,86034.59
2022-11-17T17:34:08.621Z,86029.75
2022-11-17T17:36:36.295Z,86034.97
2022-11-17T17:39:05.165Z,86030.47
2022-11-17T17:41:39.902Z,86028.97
2022-11-17T17:44:13.482Z,86021.88
2022-11-17T17:46:40.779Z,86018.13
2022-11-17T17:49:08.242Z,86014.38
2022-11-17T17:51:43.752Z,86018.50
2022-11-17T17:54:20.253Z,86015.88
2022-11-17T17:56:48.098Z,86012.13
2022-11-17T17:59:16.042Z,86015.88
2022-11-17T18:01:44.121Z,86018.09
2022-11-17T18:04:17.009Z,86019.59
2022-11-17T18:06:46.504Z,86018.81
2022-11-17T18:09:14.879Z,86021.06
2022-11-17T18:11:42.287Z,86013.94
2022-11-17T18:14:10.504Z,86019.56
2022-11-17T18:16:37.805Z,86011.31
2022-11-17T18:19:08.469Z,86000.84
2022-11-17T18:21:36.804Z,86009.13
2022-11-17T18:24:04.915Z,86000.19
2022-11-17T18:26:35.424Z,86004.69
2022-11-17T18:29:06.838Z,86000.22
2022-11-17T18:31:36.827Z,85996.50
2022-11-17T18:34:21.517Z,85999.88
2022-11-17T18:36:51.707Z,86004.78
2022-11-17T18:39:19.790Z,86006.28
2022-11-17T18:41:47.293Z,86021.22
2022-11-17T18:44:17.432Z,86013.75
2022-11-17T18:46:45.606Z,86015.63
2022-11-17T18:49:12.846Z,86019.75
2022-11-17T18:51:40.025Z,86023.13
2022-11-17T18:54:07.306Z,86020.50
2022-11-17T18:56:37.562Z,86015.66
2022-11-17T18:59:07.088Z,86012.25
2022-11-17T19:01:34.339Z,86018.63
2022-11-17T19:04:01.793Z,86017.88
2022-11-17T19:06:29.898Z,86018.28
2022-11-17T19:09:01.142Z,86020.88
2022-11-17T19:11:30.160Z,86014.50
2022-11-17T19:14:00.710Z,86016.75
2022-11-17T19:16:29.028Z,86014.88
2022-11-17T19:18:57.719Z,86015.25
2022-11-17T19:21:33.752Z,86012.22
2022-11-17T19:24:03.811Z,86015.25
2022-11-17T19:26:34.698Z,86002.53
2022-11-17T19:29:07.084Z,86007.34
2022-11-17T19:31:37.790Z,86002.88
2022-11-17T19:34:05.509Z,85999.50
2022-11-17T19:36:34.304Z,86011.88
2022-11-17T19:39:03.016Z,86005.88
2022-11-17T19:41:35.424Z,86002.16
2022-11-17T19:44:06.023Z,86009.63
2022-11-17T19:46:34.369Z,86007.38
2022-11-17T19:49:01.918Z,86009.25
2022-11-17T19:51:35.914Z,86002.91
2022-11-17T19:54:06.877Z,86014.09
2022-11-17T19:56:34.775Z,86015.97
2022-11-17T19:59:02.395Z,86012.22
2022-11-17T20:01:31.598Z,86005.50
2022-11-17T20:04:01.220Z,86011.44
2022-11-17T20:06:34.610Z,86008.09
2022-11-17T20:09:05.997Z,86007.72
2022-11-17T20:11:33.275Z,86012.56
2022-11-17T20:14:00.978Z,86018.91
2022-11-17T20:16:29.615Z,86020.41
2022-11-17T20:19:00.004Z,86018.91
2022-11-17T20:21:29.446Z,86017.38
2022-11-17T20:23:58.183Z,86001.66
2022-11-17T20:26:29.669Z,86002.41
2022-11-17T20:28:58.813Z,86001.69
2022-11-17T20:31:30.494Z,85995.34
2022-11-17T20:34:00.908Z,85995.72
2022-11-17T20:36:31.484Z,85997.94
2022-11-17T20:39:02.371Z,86004.28
2022-11-17T20:41:33.087Z,85990.44
2022-11-17T20:44:01.191Z,85995.66
2022-11-17T20:46:28.933Z,85993.41
2022-11-17T20:48:56.388Z,85997.50
2022-11-17T20:51:25.418Z,85995.97
2022-11-17T20:53:52.697Z,85999.34
2022-11-17T20:56:20.629Z,86010.56
2022-11-17T20:58:48.194Z,86008.69
2022-11-17T21:01:21.932Z,86011.31
2022-11-17T21:03:49.419Z,86010.19
2022-11-17T21:06:18.111Z,86001.19
2022-11-17T21:08:46.546Z,85998.91
2022-11-17T21:11:17.948Z,85990.63
2022-11-17T21:13:45.181Z,85993.97
2022-11-17T21:16:14.959Z,85993.22
2022-11-17T21:18:48.240Z,85985.78
2022-11-17T21:21:16.456Z,85988.03
2022-11-17T21:23:44.450Z,85990.28
2022-11-17T21:26:16.912Z,85990.69
2022-11-17T21:28:44.491Z,85994.84
2022-11-17T21:31:20.770Z,86003.09
2022-11-17T21:33:55.020Z,86005.34
2022-11-17T21:36:24.289Z,85998.25
2022-11-17T21:38:52.561Z,86000.53
2022-11-17T21:41:26.324Z,85997.19
2022-11-17T21:43:57.598Z,85994.56
2022-11-17T21:46:28.085Z,85996.75
2022-11-17T21:48:58.073Z,85997.91
2022-11-17T21:51:32.282Z,85998.28
2022-11-17T21:54:02.897Z,85988.97
2022-11-17T21:56:30.562Z,85994.56
2022-11-17T21:59:12.729Z,85993.44
2022-11-17T22:01:40.661Z,85999.81
2022-11-17T22:04:08.352Z,85999.81
2022-11-17T22:06:35.557Z,86014.75
2022-11-17T22:09:03.119Z,86021.91
2022-11-17T22:11:31.764Z,86029.72
2022-11-17T22:13:58.925Z,86024.88
2022-11-17T22:16:26.247Z,86019.63
2022-11-17T22:18:53.480Z,86018.88
2022-11-17T22:21:20.735Z,86024.13
2022-11-17T22:23:47.923Z,86014.75
2022-11-17T22:26:15.133Z,86008.00
2022-11-17T22:28:42.459Z,85998.69
2022-11-17T22:31:10.475Z,85992.66
2022-11-17T22:33:37.667Z,85982.94
2022-11-17T22:36:05.219Z,85967.22
2022-11-17T22:38:32.976Z,85964.59
2022-11-17T22:41:03.212Z,85965.00
2022-11-17T22:43:31.009Z,85973.63
2022-11-17T22:46:03.316Z,85971.00
2022-11-17T22:48:31.389Z,85966.53
2022-11-17T22:51:00.116Z,85953.41
2022-11-17T22:53:28.289Z,85938.44
2022-11-17T22:55:55.594Z,85946.31
2022-11-17T22:58:22.907Z,85945.59
2022-11-17T23:00:50.188Z,85938.50
2022-11-17T23:03:17.384Z,85950.13
2022-11-17T23:05:44.586Z,85963.22
2022-11-17T23:08:11.752Z,85961.38
2022-11-17T23:10:38.899Z,85954.28
2022-11-17T23:13:06.158Z,85959.88
2022-11-17T23:15:33.495Z,85963.63
2022-11-17T23:18:00.692Z,85967.00
2022-11-17T23:20:27.927Z,85976.38
2022-11-17T23:22:55.319Z,85977.88
2022-11-17T23:25:22.470Z,85966.25
2022-11-17T23:27:49.578Z,85962.53
2022-11-17T23:30:17.117Z,85961.06
2022-11-17T23:32:44.276Z,85963.31
2022-11-17T23:35:11.399Z,85950.22
2022-11-17T23:37:38.764Z,85941.25
2022-11-17T23:40:06.621Z,85923.69
2022-11-17T23:42:37.393Z,85916.97
2022-11-17T23:45:08.275Z,85908.72
2022-11-17T23:47:35.642Z,85902.78
2022-11-17T23:50:03.239Z,85899.06
2022-11-17T23:52:30.881Z,85902.41
2022-11-17T23:54:58.136Z,85889.72
2022-11-17T23:57:25.219Z,85893.47
2022-11-17T23:59:52.500Z,85894.25
